Time;durP1;ratioP1;P1;durP2;ratioP2;P2;SDS_P1;SDS_P2;PMS_P1;PMS_P2;Temp;Humidity;BMP_temperature;BMP_pressure;BME280_temperature;BME280_humidity;BME280_pressure;Samples;Min_cycle;Max_cycle;Signal;HPM_P1;HPM_P2
2021/10/28 00:13:58;;;;;;;;;;;;;;;;;;5012555;28;19960;-70
2021/10/28 00:16:26;;;;;;;;;;;;;;;;;;5013084;28;20028;-72
2021/10/28 00:19:00;;;;;;;;;;;;;;;;;;5004817;28;20317;-71
2021/10/28 00:21:27;;;;;;;;;;;;;;;;;;5004746;28;19932;-71
2021/10/28 00:23:59;;;;;;;;;;;;;;;;;;5009756;28;20064;-70
2021/10/28 00:26:26;;;;;;;;;;;;;;;;;;5009918;28;19926;-72
2021/10/28 00:28:57;;;;;;;;;;;;;;;;;;5010852;28;19925;-72
2021/10/28 00:31:24;;;;;;;;;;;;;;;;;;5010111;28;19933;-72
2021/10/28 00:33:51;;;;;;;;;;;;;;;;;;5003115;28;19929;-70
2021/10/28 00:36:18;;;;;;;;;;;;;;;;;;5014504;28;20052;-73
2021/10/28 00:38:45;;;;;;;;;;;;;;;;;;5014418;28;19979;-70
2021/10/28 00:41:12;;;;;;;;;;;;;;;;;;5007859;28;19979;-72
2021/10/28 00:43:39;;;;;;;;;;;;;;;;;;5009073;28;19925;-72
2021/10/28 00:46:07;;;;;;;;;;;;;;;;;;5014284;28;20397;-71
2021/10/28 00:48:34;;;;;;;;;;;;;;;;;;5018306;28;20313;-72
2021/10/28 00:51:01;;;;;;;;;;;;;;;;;;5002246;28;20444;-71
2021/10/28 00:53:28;;;;;;;;;;;;;;;;;;5002589;28;19929;-70
2021/10/28 00:55:55;;;;;;;;;;;;;;;;;;5002941;28;19925;-71
2021/10/28 00:58:23;;;;;;;;;;;;;;;;;;5007924;28;19932;-70
2021/10/28 01:00:50;;;;;;;;;;;;;;;;;;5001638;28;19988;-71
2021/10/28 01:03:17;;;;;;;;;;;;;;;;;;5013229;28;19937;-71
2021/10/28 01:05:44;;;;;;;;;;;;;;;;;;5014673;28;19933;-70
2021/10/28 01:08:11;;;;;;;;;;;;;;;;;;5014873;28;19956;-71
2021/10/28 01:10:38;;;;;;;;;;;;;;;;;;5011905;28;19941;-71
2021/10/28 01:13:05;;;;;;;;;;;;;;;;;;5006532;28;19948;-71
2021/10/28 01:15:32;;;;;;;;;;;;;;;;;;5010985;28;19925;-72
2021/10/28 01:17:59;;;;;;;;;;;;;;;;;;5007225;28;19925;-72
2021/10/28 01:20:26;;;;;;;;;;;;;;;;;;5009120;28;19953;-71
2021/10/28 01:22:53;;;;;;;;;;;;;;;;;;5003876;28;19926;-71
2021/10/28 01:25:20;;;;;;;;;;;;;;;;;;5005998;28;20372;-70
2021/10/28 01:27:47;;;;;;;;;;;;;;;;;;5008802;28;19926;-72
2021/10/28 01:30:14;;;;;;;;;;;;;;;;;;5012620;28;20023;-70
2021/10/28 01:32:41;;;;;;;;;;;;;;;;;;5003592;28;19984;-70
2021/10/28 01:35:08;;;;;;;;;;;;;;;;;;5012417;28;19925;-70
2021/10/28 01:37:35;;;;;;;;;;;;;;;;;;5011669;28;19926;-69
2021/10/28 01:40:02;;;;;;;;;;;;;;;;;;5011563;28;19957;-71
2021/10/28 01:42:29;;;;;;;;;;;;;;;;;;5002317;28;19930;-71
2021/10/28 01:44:56;;;;;;;;;;;;;;;;;;5009338;28;20388;-70
2021/10/28 01:47:22;;;;;;;;;;;;;;;;;;5016806;28;19934;-70
2021/10/28 01:49:52;;;;;;;;;;;;;;;;;;5005053;28;19957;-71
2021/10/28 01:52:18;;;;;;;;;;;;;;;;;;5002464;28;19926;-70
2021/10/28 01:54:45;;;;;;;;;;;;;;;;;;5003381;28;19925;-71
2021/10/28 01:57:12;;;;;;;;;;;;;;;;;;5004889;28;20421;-71
2021/10/28 01:59:39;;;;;;;;;;;;;;;;;;5022781;28;19932;-70
2021/10/28 02:02:06;;;;;;;;;;;;;;;;;;5003579;28;19926;-71
2021/10/28 02:04:33;;;;;;;;;;;;;;;;;;5005576;28;19936;-71
2021/10/28 02:07:01;;;;;;;;;;;;;;;;;;5008649;28;19925;-71
2021/10/28 02:09:28;;;;;;;;;;;;;;;;;;5009089;28;19933;-70
2021/10/28 02:11:55;;;;;;;;;;;;;;;;;;5008252;28;19926;-70
2021/10/28 02:14:22;;;;;;;;;;;;;;;;;;5009246;28;19936;-71
2021/10/28 02:16:49;;;;;;;;;;;;;;;;;;5009149;28;19948;-72
2021/10/28 02:19:16;;;;;;;;;;;;;;;;;;5006086;28;19936;-70
2021/10/28 02:21:43;;;;;;;;;;;;;;;;;;5005674;28;19930;-70
2021/10/28 02:24:09;;;;;;;;;;;;;;;;;;5004748;28;19933;-70
2021/10/28 02:26:36;;;;;;;;;;;;;;;;;;5003001;28;19952;-71
2021/10/28 02:29:03;;;;;;;;;;;;;;;;;;4996571;28;20004;-70
2021/10/28 02:31:31;;;;;;;;;;;;;;;;;;4997018;28;21691;-71
2021/10/28 02:33:58;;;;;;;;;;;;;;;;;;5013841;28;20344;-71
2021/10/28 02:36:25;;;;;;;;;;;;;;;;;;5009628;28;19925;-72
2021/10/28 02:38:52;;;;;;;;;;;;;;;;;;5014452;28;19929;-70
2021/10/28 02:41:19;;;;;;;;;;;;;;;;;;5007239;28;19925;-72
2021/10/28 02:43:46;;;;;;;;;;;;;;;;;;5010507;28;19925;-72
2021/10/28 02:46:13;;;;;;;;;;;;;;;;;;5017459;28;19933;-72
2021/10/28 02:48:40;;;;;;;;;;;;;;;;;;5012424;28;19926;-71
2021/10/28 02:51:07;;;;;;;;;;;;;;;;;;5013357;28;19934;-71
2021/10/28 02:53:34;;;;;;;;;;;;;;;;;;5011239;28;19947;-72
2021/10/28 02:56:01;;;;;;;;;;;;;;;;;;5007462;28;20361;-70
2021/10/28 02:58:28;;;;;;;;;;;;;;;;;;5011071;28;19936;-69
2021/10/28 03:00:55;;;;;;;;;;;;;;;;;;5009926;28;19932;-72
2021/10/28 03:03:22;;;;;;;;;;;;;;;;;;5010733;28;19930;-72
2021/10/28 03:05:49;;;;;;;;;;;;;;;;;;5007819;28;19925;-70
2021/10/28 03:08:16;;;;;;;;;;;;;;;;;;5002800;28;19925;-73
2021/10/28 03:10:44;;;;;;;;;;;;;;;;;;5009965;28;19926;-71
2021/10/28 03:13:14;;;;;;;;;;;;;;;;;;5006191;28;20858;-71
2021/10/28 03:15:41;;;;;;;;;;;;;;;;;;5005653;28;19932;-71
2021/10/28 03:19:04;;;;;;;;;;;;;;;;;;5003231;28;19929;-72
2021/10/28 03:26:30;;;;;;;;;;;;;;;;;;5003210;28;20048;-71
2021/10/28 03:28:57;;;;;;;;;;;;;;;;;;5007803;28;19936;-71
2021/10/28 03:31:24;;;;;;;;;;;;;;;;;;5004162;28;19935;-72
2021/10/28 03:33:51;;;;;;;;;;;;;;;;;;5016700;28;19937;-72
2021/10/28 03:36:27;;;;;;;;;;;;;;;;;;5007913;28;20016;-70
2021/10/28 03:39:07;;;;;;;;;;;;;;;;;;5007755;28;19933;-72
2021/10/28 03:44:54;;;;;;;;;;;;;;;;;;5006372;22;19929;-60
2021/10/28 03:47:59;;;;;;;;;;;;;;;;;;5031506;28;19988;-61
2021/10/28 04:01:58;;;;;;;;;;;;;;;;;;5023058;28;19957;-60
2021/10/28 04:07:22;;;;;;;;;;;;;;;;;;5028284;28;20031;-60
2021/10/28 04:18:31;;;;;;;;;;;;;;;;;;5036379;28;19956;-60
2021/10/28 04:21:15;;;;;;;;;;;;;;;;;;5028828;28;19929;-61
2021/10/28 04:29:11;;;;;;;;;;;;;;;;;;5029008;28;19927;-57
2021/10/28 04:31:39;;;;;;;;;;;;;;;;;;5030991;28;19929;-59
2021/10/28 04:34:06;;;;;;;;;;;;;;;;;;5029950;28;19967;-57
2021/10/28 04:36:33;;;;;;;;;;;;;;;;;;5045403;28;19925;-60
2021/10/28 04:39:00;;;;;;;;;;;;;;;;;;5030730;28;20313;-58
2021/10/28 04:41:27;;;;;;;;;;;;;;;;;;5036970;28;19929;-60
2021/10/28 04:43:54;;;;;;;;;;;;;;;;;;5022783;28;19933;-60
2021/10/28 04:46:21;;;;;;;;;;;;;;;;;;5032664;28;20316;-60
2021/10/28 04:48:48;;;;;;;;;;;;;;;;;;5032507;28;20377;-60
2021/10/28 04:51:15;;;;;;;;;;;;;;;;;;5024133;28;20385;-60
2021/10/28 04:53:42;;;;;;;;;;;;;;;;;;5034438;28;19924;-59
2021/10/28 04:56:08;;;;;;;;;;;;;;;;;;5037983;28;19932;-60
2021/10/28 04:58:35;;;;;;;;;;;;;;;;;;5022218;28;19925;-57
2021/10/28 05:01:02;;;;;;;;;;;;;;;;;;5023140;28;19925;-60
2021/10/28 05:03:29;;;;;;;;;;;;;;;;;;5019579;28;19984;-60
2021/10/28 05:05:56;;;;;;;;;;;;;;;;;;5020404;28;20361;-59
2021/10/28 05:08:24;;;;;;;;;;;;;;;;;;5021988;28;19932;-60
2021/10/28 05:10:51;;;;;;;;;;;;;;;;;;5020199;28;19933;-60
2021/10/28 05:13:18;;;;;;;;;;;;;;;;;;5024900;28;19925;-59
2021/10/28 05:15:45;;;;;;;;;;;;;;;;;;5024091;28;20330;-59
2021/10/28 05:18:12;;;;;;;;;;;;;;;;;;5025784;28;19931;-60
2021/10/28 05:20:39;;;;;;;;;;;;;;;;;;5021184;28;19925;-58
2021/10/28 05:23:06;;;;;;;;;;;;;;;;;;5020780;28;19969;-60
2021/10/28 05:25:33;;;;;;;;;;;;;;;;;;5024648;28;19948;-61
2021/10/28 05:28:00;;;;;;;;;;;;;;;;;;5023707;28;19940;-58
2021/10/28 05:30:28;;;;;;;;;;;;;;;;;;5026414;28;19932;-59
2021/10/28 05:32:55;;;;;;;;;;;;;;;;;;5021760;28;19925;-58
2021/10/28 05:35:22;;;;;;;;;;;;;;;;;;5021281;28;19932;-59
2021/10/28 05:37:49;;;;;;;;;;;;;;;;;;5026333;28;20039;-58
2021/10/28 05:40:16;;;;;;;;;;;;;;;;;;5026108;28;20023;-60
2021/10/28 05:42:48;;;;;;;;;;;;;;;;;;5024777;28;19926;-60
2021/10/28 05:45:15;;;;;;;;;;;;;;;;;;5030720;28;20273;-58
2021/10/28 05:47:42;;;;;;;;;;;;;;;;;;5019412;28;20391;-58
2021/10/28 05:50:13;;;;;;;;;;;;;;;;;;5025891;28;19925;-60
2021/10/28 05:52:40;;;;;;;;;;;;;;;;;;5026604;28;19935;-59
2021/10/28 05:55:07;;;;;;;;;;;;;;;;;;5027850;28;19944;-59
2021/10/28 05:57:34;;;;;;;;;;;;;;;;;;5023467;28;20393;-58
2021/10/28 06:00:01;;;;;;;;;;;;;;;;;;5022973;28;19939;-60
2021/10/28 06:02:29;;;;;;;;;;;;;;;;;;5016043;28;19939;-59
2021/10/28 06:04:55;;;;;;;;;;;;;;;;;;5015817;28;19949;-59
2021/10/28 06:07:22;;;;;;;;;;;;;;;;;;5021689;28;19931;-59
2021/10/28 06:09:49;;;;;;;;;;;;;;;;;;5028202;28;19948;-59
2021/10/28 06:12:17;;;;;;;;;;;;;;;;;;5025609;28;19932;-59
2021/10/28 06:14:43;;;;;;;;;;;;;;;;;;5020391;28;19929;-59
2021/10/28 06:17:13;;;;;;;;;;;;;;;;;;5022479;28;20293;-58
2021/10/28 06:19:40;;;;;;;;;;;;;;;;;;5024302;28;20325;-59
2021/10/28 06:22:07;;;;;;;;;;;;;;;;;;5023811;28;20432;-59
2021/10/28 06:24:34;;;;;;;;;;;;;;;;;;5023328;28;19943;-59
2021/10/28 06:27:01;;;;;;;;;;;;;;;;;;5018968;28;19929;-58
2021/10/28 06:29:28;;;;;;;;;;;;;;;;;;5024358;28;19935;-59
2021/10/28 06:31:56;;;;;;;;;;;;;;;;;;5023404;28;19932;-59
2021/10/28 06:34:26;;;;;;;;;;;;;;;;;;5022290;28;20019;-58
2021/10/28 06:36:55;;;;;;;;;;;;;;;;;;5026036;28;19936;-60
2021/10/28 06:39:22;;;;;;;;;;;;;;;;;;5023111;28;19932;-57
2021/10/28 06:41:49;;;;;;;;;;;;;;;;;;5020382;28;19925;-58
2021/10/28 06:44:16;;;;;;;;;;;;;;;;;;5019614;28;19925;-59
2021/10/28 06:46:43;;;;;;;;;;;;;;;;;;5020700;28;20016;-59
2021/10/28 06:49:10;;;;;;;;;;;;;;;;;;5028564;28;19944;-57
2021/10/28 06:51:39;;;;;;;;;;;;;;;;;;5019964;28;20026;-59
2021/10/28 06:54:10;;;;;;;;;;;;;;;;;;5024599;28;20023;-57
2021/10/28 06:56:59;;;;;;;;;;;;;;;;;;5019890;28;20025;-59
2021/10/28 07:02:17;;;;;;;;;;;;;;;;;;5022036;28;19924;-59
2021/10/28 07:04:45;;;;;;;;;;;;;;;;;;5024268;28;19929;-58
2021/10/28 07:07:13;;;;;;;;;;;;;;;;;;5028205;28;20000;-59
2021/10/28 07:09:42;;;;;;;;;;;;;;;;;;5025733;28;19973;-60
2021/10/28 07:12:14;;;;;;;;;;;;;;;;;;5022503;28;19994;-60
2021/10/28 07:14:45;;;;;;;;;;;;;;;;;;5017433;28;19937;-60
2021/10/28 07:17:22;;;;;;;;;;;;;;;;;;5020156;28;19925;-59
2021/10/28 07:20:02;;;;;;;;;;;;;;;;;;5023312;28;19947;-60
2021/10/28 07:22:44;;;;;;;;;;;;;;;;;;5026321;28;19929;-60
2021/10/28 07:31:03;;;;;;;;;;;;;;;;;;5022692;28;19928;-60
2021/10/28 07:36:38;;;;;;;;;;;;;;;;;;5014210;28;20385;-59
2021/10/28 08:15:04;;;;;;;;;;;;;;;;;;5021071;28;19928;-60
2021/10/28 08:17:55;;;;;;;;;;;;;;;;;;5026576;28;20043;-59
2021/10/28 08:20:39;;;;;;;;;;;;;;;;;;5028470;28;19979;-59
2021/10/28 08:23:10;;;;;;;;;;;;;;;;;;5024025;28;19979;-59
2021/10/28 08:28:44;;;;;;;;;;;;;;;;;;5020717;28;20396;-57
2021/10/28 08:31:11;;;;;;;;;;;;;;;;;;5024741;28;19925;-56
2021/10/28 08:33:38;;;;;;;;;;;;;;;;;;5026913;28;19956;-59
2021/10/28 08:36:09;;;;;;;;;;;;;;;;;;5026623;28;19932;-59
2021/10/28 08:38:36;;;;;;;;;;;;;;;;;;5024991;28;19929;-61
2021/10/28 08:41:02;;;;;;;;;;;;;;;;;;5024957;28;19925;-59
2021/10/28 08:43:29;;;;;;;;;;;;;;;;;;5027956;28;19929;-60
2021/10/28 08:45:57;;;;;;;;;;;;;;;;;;5026667;28;19925;-59
2021/10/28 08:48:25;;;;;;;;;;;;;;;;;;5023195;28;19926;-59
2021/10/28 08:51:01;;;;;;;;;;;;;;;;;;5026465;28;20417;-60
2021/10/28 08:53:37;;;;;;;;;;;;;;;;;;5028294;28;19925;-59
2021/10/28 08:56:11;;;;;;;;;;;;;;;;;;5024568;28;19925;-60
2021/10/28 08:58:55;;;;;;;;;;;;;;;;;;5024099;28;19929;-60
2021/10/28 09:26:05;;;;;;;;;;;;;;;;;;5026090;28;19968;-60
2021/10/28 09:28:33;;;;;;;;;;;;;;;;;;5027786;28;20841;-60
2021/10/28 09:31:01;;;;;;;;;;;;;;;;;;5023386;28;19929;-60
2021/10/28 09:33:34;;;;;;;;;;;;;;;;;;5024073;28;19931;-60
2021/10/28 09:44:22;;;;;;;;;;;;;;;;;;5064707;22;19977;-70
2021/10/28 09:46:51;;;;;;;;;;;;;;;;;;5053439;28;19925;-70
2021/10/28 09:52:07;;;;;;;;;;;;;;;;;;5053769;28;19928;-70
2021/10/28 09:54:46;;;;;;;;;;;;;;;;;;5048837;28;19925;-70
2021/10/28 09:59:58;;;;;;;;;;;;;;;;;;5056676;28;20415;-70
2021/10/28 10:02:32;;;;;;;;;;;;;;;;;;5058446;28;19981;-71
2021/10/28 10:04:59;;;;;;;;;;;;;;;;;;5054048;28;19932;-71
2021/10/28 10:07:26;;;;;;;;;;;;;;;;;;5054075;28;20030;-70
2021/10/28 10:09:53;;;;;;;;;;;;;;;;;;5054178;28;19926;-71
2021/10/28 10:12:20;;;;;;;;;;;;;;;;;;5058480;28;19931;-70
2021/10/28 10:14:47;;;;;;;;;;;;;;;;;;5054036;28;19932;-72
2021/10/28 10:17:16;;;;;;;;;;;;;;;;;;5047247;28;19932;-70
2021/10/28 10:19:45;;;;;;;;;;;;;;;;;;5050855;28;19971;-72
2021/10/28 10:22:25;;;;;;;;;;;;;;;;;;5058868;28;20289;-71
2021/10/28 10:25:09;;;;;;;;;;;;;;;;;;5054824;28;20350;-70
2021/10/28 10:28:20;;;;;;;;;;;;;;;;;;5055700;28;19933;-71
2021/10/28 11:15:34;;;;;;;;;;;;;;;;;;5063852;28;19925;-70
2021/10/28 11:23:29;;;;;;;;;;;;;;;;;;5022780;28;19974;-69
2021/10/28 12:25:07;;;;;;;;;;;;;;;;;;5100424;27;19938;-68
2021/10/28 12:44:17;;;;;;;;;;;;;;;;;;5105305;28;19973;-70
2021/10/28 12:46:58;;;;;;;;;;;;;;;;;;5094275;28;19924;-69
2021/10/28 12:49:53;;;;;;;;;;;;;;;;;;5096954;28;19935;-69
2021/10/28 12:52:34;;;;;;;;;;;;;;;;;;5096564;28;19935;-72
2021/10/28 12:55:12;;;;;;;;;;;;;;;;;;5101366;28;19924;-69
2021/10/28 13:50:25;;;;;;;;;;;;;;;;;;5079525;28;19920;-69
2021/10/28 13:58:45;;;;;;;;;;;;;;;;;;5079934;28;19927;-70
2021/10/28 14:18:26;;;;;;;;;;;;;;;;;;5073360;28;19919;-69
2021/10/28 14:23:45;;;;;;;;;;;;;;;;;;5070995;28;20016;-69
2021/10/28 15:29:46;;;;;;;;;;;;;;;;;;5081358;28;20423;-69
2021/10/28 15:35:08;;;;;;;;;;;;;;;;;;5074938;28;19920;-69
2021/10/28 15:37:46;;;;;;;;;;;;;;;;;;5083473;28;19997;-69
2021/10/28 15:40:19;;;;;;;;;;;;;;;;;;5078760;28;19935;-69
2021/10/28 15:56:56;;;;;;;;;;;;;;;;;;5072958;28;19951;-69
2021/10/28 16:21:50;;;;;;;;;;;;;;;;;;5055103;28;20011;-70
2021/10/28 16:24:17;;;;;;;;;;;;;;;;;;5074999;28;19924;-71
2021/10/28 16:26:44;;;;;;;;;;;;;;;;;;5076096;28;19930;-71
2021/10/28 16:29:12;;;;;;;;;;;;;;;;;;5074889;28;20318;-69
2021/10/28 16:31:39;;;;;;;;;;;;;;;;;;5083965;28;19959;-69
2021/10/28 16:34:06;;;;;;;;;;;;;;;;;;5080217;28;20381;-70
2021/10/28 16:36:33;;;;;;;;;;;;;;;;;;5080581;28;19934;-71
2021/10/28 16:39:04;;;;;;;;;;;;;;;;;;5101161;28;19992;-70
2021/10/28 16:41:31;;;;;;;;;;;;;;;;;;5083502;28;20434;-71
2021/10/28 16:43:59;;;;;;;;;;;;;;;;;;5078028;28;19924;-71
2021/10/28 16:46:26;;;;;;;;;;;;;;;;;;5079507;28;19932;-71
2021/10/28 16:48:53;;;;;;;;;;;;;;;;;;5085510;28;20376;-71
2021/10/28 16:51:20;;;;;;;;;;;;;;;;;;5074839;28;20320;-71
2021/10/28 16:53:47;;;;;;;;;;;;;;;;;;5076303;28;19925;-71
2021/10/28 16:56:15;;;;;;;;;;;;;;;;;;5081108;28;19924;-71
2021/10/28 16:58:42;;;;;;;;;;;;;;;;;;5079221;28;19967;-71
2021/10/28 17:01:09;;;;;;;;;;;;;;;;;;5077930;28;20353;-72
2021/10/28 17:03:36;;;;;;;;;;;;;;;;;;5079056;28;19979;-72
2021/10/28 17:06:03;;;;;;;;;;;;;;;;;;5078916;28;19932;-71
2021/10/28 17:08:30;;;;;;;;;;;;;;;;;;5081931;28;20402;-72
2021/10/28 17:10:57;;;;;;;;;;;;;;;;;;5084674;28;20015;-71
2021/10/28 17:13:24;;;;;;;;;;;;;;;;;;5083574;28;19925;-71
2021/10/28 17:15:51;;;;;;;;;;;;;;;;;;5088760;28;19984;-71
2021/10/28 17:18:18;;;;;;;;;;;;;;;;;;5084339;28;19928;-70
2021/10/28 17:20:46;;;;;;;;;;;;;;;;;;5080200;28;19971;-70
2021/10/28 17:23:14;;;;;;;;;;;;;;;;;;5084299;28;19928;-70
2021/10/28 17:25:44;;;;;;;;;;;;;;;;;;5078426;28;20047;-72
2021/10/28 17:28:11;;;;;;;;;;;;;;;;;;5080665;28;19971;-70
2021/10/28 17:30:38;;;;;;;;;;;;;;;;;;5081695;28;19994;-71
2021/10/28 17:33:05;;;;;;;;;;;;;;;;;;5082603;28;19924;-70
2021/10/28 17:35:33;;;;;;;;;;;;;;;;;;5082284;28;19928;-71
2021/10/28 17:38:00;;;;;;;;;;;;;;;;;;5077718;28;19935;-70
2021/10/28 17:40:27;;;;;;;;;;;;;;;;;;5081851;28;19925;-70
2021/10/28 17:42:55;;;;;;;;;;;;;;;;;;5081925;28;19929;-70
2021/10/28 17:45:26;;;;;;;;;;;;;;;;;;5080361;28;19928;-70
2021/10/28 17:47:52;;;;;;;;;;;;;;;;;;5078033;28;19997;-69
2021/10/28 17:50:19;;;;;;;;;;;;;;;;;;5080068;28;19974;-70
2021/10/28 17:52:46;;;;;;;;;;;;;;;;;;5080220;28;20403;-70
2021/10/28 17:55:13;;;;;;;;;;;;;;;;;;5084017;28;20304;-68
2021/10/28 17:57:41;;;;;;;;;;;;;;;;;;5080479;28;19943;-70
2021/10/28 18:00:08;;;;;;;;;;;;;;;;;;5083992;28;20355;-70
2021/10/28 18:02:35;;;;;;;;;;;;;;;;;;5078384;28;20384;-71
2021/10/28 18:05:02;;;;;;;;;;;;;;;;;;5077657;28;19935;-72
2021/10/28 18:07:29;;;;;;;;;;;;;;;;;;5086031;28;19928;-70
2021/10/28 18:09:58;;;;;;;;;;;;;;;;;;5084115;28;19935;-69
2021/10/28 18:12:26;;;;;;;;;;;;;;;;;;5086225;28;20353;-68
2021/10/28 18:14:53;;;;;;;;;;;;;;;;;;5078353;28;20339;-70
2021/10/28 18:17:20;;;;;;;;;;;;;;;;;;5087570;28;19925;-69
2021/10/28 18:19:47;;;;;;;;;;;;;;;;;;5080357;28;20017;-71
2021/10/28 18:22:14;;;;;;;;;;;;;;;;;;5084061;28;20043;-70
2021/10/28 18:24:41;;;;;;;;;;;;;;;;;;5083649;28;19989;-70
2021/10/28 18:27:08;;;;;;;;;;;;;;;;;;5080709;28;20445;-69
2021/10/28 18:29:35;;;;;;;;;;;;;;;;;;5082316;28;20019;-69
2021/10/28 18:32:02;;;;;;;;;;;;;;;;;;5086098;28;19964;-71
2021/10/28 18:34:29;;;;;;;;;;;;;;;;;;5088859;28;20007;-70
2021/10/28 18:36:56;;;;;;;;;;;;;;;;;;5088354;28;20014;-69
2021/10/28 18:39:23;;;;;;;;;;;;;;;;;;5080070;28;20406;-68
2021/10/28 18:41:51;;;;;;;;;;;;;;;;;;5081709;28;19931;-71
2021/10/28 18:44:18;;;;;;;;;;;;;;;;;;5074291;28;20296;-70
2021/10/28 18:46:45;;;;;;;;;;;;;;;;;;5080043;28;19931;-70
2021/10/28 18:49:12;;;;;;;;;;;;;;;;;;5082406;28;19931;-69
2021/10/28 18:51:41;;;;;;;;;;;;;;;;;;5080061;28;19932;-69
2021/10/28 18:54:08;;;;;;;;;;;;;;;;;;5076108;28;19928;-71
2021/10/28 18:56:35;;;;;;;;;;;;;;;;;;5082341;28;19932;-70
2021/10/28 18:59:02;;;;;;;;;;;;;;;;;;5082708;28;20081;-69
2021/10/28 19:01:31;;;;;;;;;;;;;;;;;;5074968;28;19935;-70
2021/10/28 19:03:58;;;;;;;;;;;;;;;;;;5081004;28;19924;-70
2021/10/28 19:06:25;;;;;;;;;;;;;;;;;;5082333;28;19924;-71
2021/10/28 19:08:52;;;;;;;;;;;;;;;;;;5081001;28;20376;-71
2021/10/28 19:11:20;;;;;;;;;;;;;;;;;;5080488;28;20354;-70
2021/10/28 19:13:48;;;;;;;;;;;;;;;;;;5074846;28;19968;-70
2021/10/28 19:16:15;;;;;;;;;;;;;;;;;;5078055;28;19969;-72
2021/10/28 19:18:42;;;;;;;;;;;;;;;;;;5079677;28;20446;-72
2021/10/28 19:21:09;;;;;;;;;;;;;;;;;;5084978;28;20277;-70
2021/10/28 19:23:36;;;;;;;;;;;;;;;;;;5081319;28;20417;-71
2021/10/28 19:26:03;;;;;;;;;;;;;;;;;;5083330;28;19986;-72
2021/10/28 19:28:30;;;;;;;;;;;;;;;;;;5077055;28;19925;-70
2021/10/28 19:31:00;;;;;;;;;;;;;;;;;;5074013;28;19975;-72
2021/10/28 19:33:34;;;;;;;;;;;;;;;;;;5079447;28;20007;-70
2021/10/28 19:36:02;;;;;;;;;;;;;;;;;;5077189;28;20019;-69
2021/10/28 19:38:46;;;;;;;;;;;;;;;;;;5078229;28;19931;-70
2021/10/28 19:46:39;;;;;;;;;;;;;;;;;;5082015;28;19973;-70
2021/10/28 19:49:06;;;;;;;;;;;;;;;;;;5082410;28;20027;-72
2021/10/28 19:51:33;;;;;;;;;;;;;;;;;;5082354;28;19924;-70
2021/10/28 19:54:02;;;;;;;;;;;;;;;;;;5079175;28;20027;-71
2021/10/28 19:56:30;;;;;;;;;;;;;;;;;;5077261;28;19970;-71
2021/10/28 19:58:59;;;;;;;;;;;;;;;;;;5084375;28;19924;-71
2021/10/28 20:01:30;;;;;;;;;;;;;;;;;;5076335;28;20372;-70
2021/10/28 20:15:23;;;;;;;;;;;;;;;;;;5081897;28;19966;-71
2021/10/28 20:20:38;;;;;;;;;;;;;;;;;;5080877;28;19923;-71
2021/10/28 20:23:05;;;;;;;;;;;;;;;;;;5080666;28;19951;-74
2021/10/28 20:25:32;;;;;;;;;;;;;;;;;;5079958;28;20403;-70
2021/10/28 20:28:02;;;;;;;;;;;;;;;;;;5077242;28;19924;-71
2021/10/28 20:30:30;;;;;;;;;;;;;;;;;;5079348;28;19935;-70
2021/10/28 20:32:57;;;;;;;;;;;;;;;;;;5080669;28;19925;-70
2021/10/28 20:35:39;;;;;;;;;;;;;;;;;;5075903;28;19925;-71
2021/10/28 20:38:06;;;;;;;;;;;;;;;;;;5080712;28;19925;-70
2021/10/28 20:40:33;;;;;;;;;;;;;;;;;;5077831;28;19963;-72
2021/10/28 20:43:00;;;;;;;;;;;;;;;;;;5079600;28;19930;-69
2021/10/28 20:45:28;;;;;;;;;;;;;;;;;;5074361;28;21475;-69
2021/10/28 20:47:55;;;;;;;;;;;;;;;;;;5077702;28;20418;-71
2021/10/28 20:50:22;;;;;;;;;;;;;;;;;;5075002;28;19924;-70
2021/10/28 20:52:49;;;;;;;;;;;;;;;;;;5083735;28;20027;-68
2021/10/28 20:55:16;;;;;;;;;;;;;;;;;;5079195;28;19978;-69
2021/10/28 20:57:43;;;;;;;;;;;;;;;;;;5078721;28;19931;-69
2021/10/28 21:00:10;;;;;;;;;;;;;;;;;;5079764;28;20011;-70
2021/10/28 21:02:37;;;;;;;;;;;;;;;;;;5078264;28;19997;-72
2021/10/28 21:05:09;;;;;;;;;;;;;;;;;;5081277;28;19924;-71
2021/10/28 21:07:36;;;;;;;;;;;;;;;;;;5077760;28;19928;-70
2021/10/28 21:10:03;;;;;;;;;;;;;;;;;;5084937;28;19924;-70
2021/10/28 21:12:30;;;;;;;;;;;;;;;;;;5072481;28;19928;-72
2021/10/28 21:14:57;;;;;;;;;;;;;;;;;;5070644;28;19924;-71
2021/10/28 21:17:24;;;;;;;;;;;;;;;;;;5072239;28;19925;-72
2021/10/28 21:19:51;;;;;;;;;;;;;;;;;;5073693;28;19935;-70
2021/10/28 21:22:18;;;;;;;;;;;;;;;;;;5083860;28;19931;-71
2021/10/28 21:24:48;;;;;;;;;;;;;;;;;;5078282;28;19925;-71
2021/10/28 21:27:15;;;;;;;;;;;;;;;;;;5085736;28;20462;-71
2021/10/28 21:29:42;;;;;;;;;;;;;;;;;;5072339;28;19924;-71
2021/10/28 21:32:10;;;;;;;;;;;;;;;;;;5086108;28;20178;-71
2021/10/28 21:34:37;;;;;;;;;;;;;;;;;;5079540;28;19999;-72
2021/10/28 21:37:05;;;;;;;;;;;;;;;;;;5078260;28;20385;-70
2021/10/28 21:39:32;;;;;;;;;;;;;;;;;;5080242;28;21291;-72
2021/10/28 21:41:59;;;;;;;;;;;;;;;;;;5077537;28;19925;-69
2021/10/28 21:44:26;;;;;;;;;;;;;;;;;;5077674;28;19933;-71
2021/10/28 21:46:53;;;;;;;;;;;;;;;;;;5073045;28;20283;-70
2021/10/28 21:49:20;;;;;;;;;;;;;;;;;;5085985;28;19934;-73
2021/10/28 21:51:51;;;;;;;;;;;;;;;;;;5076053;28;20025;-71
2021/10/28 21:54:31;;;;;;;;;;;;;;;;;;5083253;28;20443;-71
2021/10/28 21:57:01;;;;;;;;;;;;;;;;;;5075638;28;19950;-71
2021/10/28 22:02:33;;;;;;;;;;;;;;;;;;5069489;28;19924;-71
2021/10/28 22:05:15;;;;;;;;;;;;;;;;;;5080694;28;19929;-72
2021/10/28 22:24:18;;;;;;;;;;;;;;;;;;5081081;28;19966;-70
2021/10/28 22:26:45;;;;;;;;;;;;;;;;;;5071152;28;19935;-73
2021/10/28 22:29:12;;;;;;;;;;;;;;;;;;5071768;28;19924;-72
2021/10/28 22:31:39;;;;;;;;;;;;;;;;;;5079014;28;19924;-71
2021/10/28 22:34:06;;;;;;;;;;;;;;;;;;5076241;28;19928;-71
2021/10/28 22:36:38;;;;;;;;;;;;;;;;;;5078013;28;19936;-71
2021/10/28 22:39:10;;;;;;;;;;;;;;;;;;5080042;28;20002;-73
2021/10/28 22:41:37;;;;;;;;;;;;;;;;;;5086102;28;19924;-71
2021/10/28 22:44:04;;;;;;;;;;;;;;;;;;5071863;28;19925;-71
2021/10/28 22:46:31;;;;;;;;;;;;;;;;;;5084714;28;20372;-71
2021/10/28 22:48:58;;;;;;;;;;;;;;;;;;5080638;28;19930;-70
2021/10/28 22:51:25;;;;;;;;;;;;;;;;;;5080415;28;19928;-71
2021/10/28 22:53:52;;;;;;;;;;;;;;;;;;5085403;28;19924;-70
2021/10/28 22:56:19;;;;;;;;;;;;;;;;;;5083080;28;19931;-69
2021/10/28 22:58:49;;;;;;;;;;;;;;;;;;5080455;28;19925;-71
2021/10/28 23:01:19;;;;;;;;;;;;;;;;;;5085012;28;20011;-70
2021/10/28 23:04:01;;;;;;;;;;;;;;;;;;5080348;28;19939;-71
2021/10/28 23:06:48;;;;;;;;;;;;;;;;;;5088782;28;20010;-71
2021/10/28 23:14:53;;;;;;;;;;;;;;;;;;5085372;28;20318;-70
2021/10/28 23:23:01;;;;;;;;;;;;;;;;;;5087256;28;19961;-70
2021/10/28 23:25:28;;;;;;;;;;;;;;;;;;5087468;28;19924;-71
2021/10/28 23:27:55;;;;;;;;;;;;;;;;;;5085148;28;19928;-70
2021/10/28 23:30:22;;;;;;;;;;;;;;;;;;5088057;28;19928;-71
2021/10/28 23:32:49;;;;;;;;;;;;;;;;;;5088471;28;19924;-71
2021/10/28 23:35:16;;;;;;;;;;;;;;;;;;5082300;28;20277;-70
2021/10/28 23:37:43;;;;;;;;;;;;;;;;;;5081363;28;19935;-70
2021/10/28 23:40:10;;;;;;;;;;;;;;;;;;5078451;28;20393;-71
2021/10/28 23:42:37;;;;;;;;;;;;;;;;;;5079813;28;19932;-70
2021/10/28 23:45:04;;;;;;;;;;;;;;;;;;5084970;28;19924;-72
2021/10/28 23:47:31;;;;;;;;;;;;;;;;;;5073835;28;19924;-71
2021/10/28 23:49:58;;;;;;;;;;;;;;;;;;5075898;28;20395;-70
2021/10/28 23:52:25;;;;;;;;;;;;;;;;;;5081738;28;20308;-71
2021/10/28 23:54:52;;;;;;;;;;;;;;;;;;5087356;28;20398;-69
2021/10/28 23:57:19;;;;;;;;;;;;;;;;;;5083443;28;19931;-72
2021/10/28 23:59:46;;;;;;;;;;;;;;;;;;5079148;28;19935;-71
